Time;durP1;ratioP1;P1;durP2;ratioP2;P2;SDS_P1;SDS_P2;PMS_P1;PMS_P2;Temp;Humidity;BMP_temperature;BMP_pressure;BME280_temperature;BME280_humidity;BME280_pressure;Samples;Min_cycle;Max_cycle;Signal;HPM_P1;HPM_P2
2022/09/29 00:02:13;;;;;;;7.38;4.30;;;;;;;;;;5059355;28;20056;-88
2022/09/29 00:04:40;;;;;;;4.43;3.88;;;;;;;;;;5059322;28;20052;-87
2022/09/29 00:07:07;;;;;;;4.00;3.60;;;;;;;;;;5059019;28;20049;-88
2022/09/29 00:09:35;;;;;;;6.57;4.35;;;;;;;;;;5076386;28;20059;-87
2022/09/29 00:12:05;;;;;;;8.27;4.25;;;;;;;;;;5076227;28;20049;-88
2022/09/29 00:14:32;;;;;;;4.18;3.88;;;;;;;;;;5076563;28;20544;-86
2022/09/29 00:16:59;;;;;;;5.07;3.92;;;;;;;;;;5058970;28;20044;-87
2022/09/29 00:19:27;;;;;;;4.10;3.78;;;;;;;;;;5058570;28;20048;-87
2022/09/29 00:21:54;;;;;;;5.53;4.13;;;;;;;;;;5058644;28;20139;-87
2022/09/29 00:24:21;;;;;;;8.23;4.25;;;;;;;;;;5058879;28;20049;-87
2022/09/29 00:26:49;;;;;;;4.15;3.83;;;;;;;;;;5058851;28;20557;-88
2022/09/29 00:29:16;;;;;;;4.50;4.10;;;;;;;;;;5058601;28;20049;-88
2022/09/29 00:31:43;;;;;;;4.25;3.65;;;;;;;;;;5058775;28;20087;-88
2022/09/29 00:34:10;;;;;;;5.45;4.00;;;;;;;;;;5058509;28;20048;-88
2022/09/29 00:36:37;;;;;;;3.72;3.40;;;;;;;;;;5058422;28;20090;-87
2022/09/29 00:39:05;;;;;;;5.03;3.63;;;;;;;;;;5075970;28;20052;-88
2022/09/29 00:41:33;;;;;;;3.08;2.88;;;;;;;;;;5076122;28;20044;-88
2022/09/29 00:44:04;;;;;;;4.05;3.38;;;;;;;;;;5057691;28;20056;-88
2022/09/29 00:46:53;;;;;;;5.75;3.35;;;;;;;;;;5058379;28;20049;-87
2022/09/29 00:49:35;;;;;;;3.00;2.80;;;;;;;;;;5075888;28;20048;-87
2022/09/29 00:52:05;;;;;;;5.07;3.50;;;;;;;;;;5058468;28;20047;-88
2022/09/29 00:54:34;;;;;;;5.00;3.33;;;;;;;;;;5058327;28;20056;-88
2022/09/29 00:57:02;;;;;;;3.80;3.42;;;;;;;;;;5058133;28;20063;-88
2022/09/29 00:59:36;;;;;;;4.03;3.38;;;;;;;;;;5057389;28;20056;-88
2022/09/29 01:02:04;;;;;;;6.40;2.95;;;;;;;;;;5057951;28;20049;-88
2022/09/29 01:04:32;;;;;;;4.72;4.28;;;;;;;;;;5057809;28;20071;-88
2022/09/29 01:07:01;;;;;;;5.25;4.32;;;;;;;;;;5058019;28;20041;-88
2022/09/29 01:09:33;;;;;;;4.03;3.63;;;;;;;;;;5058184;28;20543;-88
2022/09/29 01:12:00;;;;;;;4.15;3.83;;;;;;;;;;5057723;28;20040;-88
2022/09/29 01:14:28;;;;;;;4.90;4.22;;;;;;;;;;5075414;28;20053;-88
2022/09/29 01:16:55;;;;;;;5.68;3.47;;;;;;;;;;5057733;28;20041;-88
2022/09/29 01:19:49;;;;;;;5.40;4.13;;;;;;;;;;5057820;28;20059;-88
2022/09/29 01:22:22;;;;;;;4.43;4.03;;;;;;;;;;5055724;28;20459;-88
2022/09/29 01:24:56;;;;;;;4.57;4.15;;;;;;;;;;5057594;28;20075;-87
2022/09/29 01:27:23;;;;;;;;;;;;;;;;;;5057903;28;20492;-88
2022/09/29 01:30:00;;;;;;;7.82;3.97;;;;;;;;;;5057434;28;20014;-87
2022/09/29 01:32:32;;;;;;;5.57;4.93;;;;;;;;;;5075089;28;20048;-88
2022/09/29 01:35:12;;;;;;;4.55;4.25;;;;;;;;;;5056995;28;20504;-86
2022/09/29 01:37:47;;;;;;;4.30;4.00;;;;;;;;;;5057245;28;20067;-87
2022/09/29 01:40:14;;;;;;;4.88;4.05;;;;;;;;;;5073470;28;20059;-87
2022/09/29 01:42:48;;;;;;;6.90;4.78;;;;;;;;;;5074976;28;20060;-87
2022/09/29 01:45:21;;;;;;;4.88;4.20;;;;;;;;;;5056639;28;20068;-88
2022/09/29 01:47:59;;;;;;;4.38;4.03;;;;;;;;;;5074821;28;20393;-88
2022/09/29 01:50:29;;;;;;;4.68;4.28;;;;;;;;;;5057265;28;20516;-88
2022/09/29 01:52:59;;;;;;;5.90;3.88;;;;;;;;;;5056977;28;20052;-87
2022/09/29 01:55:32;;;;;;;5.57;4.05;;;;;;;;;;5074447;28;20044;-88
2022/09/29 01:58:01;;;;;;;4.50;4.07;;;;;;;;;;5074410;28;20109;-87
2022/09/29 02:00:34;;;;;;;4.57;4.18;;;;;;;;;;5056637;28;20052;-88
2022/09/29 02:03:07;;;;;;;5.43;4.18;;;;;;;;;;5056727;28;20412;-88
2022/09/29 02:05:40;;;;;;;5.88;4.57;;;;;;;;;;5057012;28;20048;-87
2022/09/29 02:08:22;;;;;;;4.15;3.83;;;;;;;;;;5056802;28;20056;-88
2022/09/29 02:10:52;;;;;;;4.38;3.63;;;;;;;;;;5073723;28;20052;-88
2022/09/29 02:13:23;;;;;;;6.68;3.80;;;;;;;;;;5056428;28;20052;-87
2022/09/29 02:15:55;;;;;;;5.40;4.05;;;;;;;;;;5074182;28;20511;-88
2022/09/29 02:18:23;;;;;;;7.97;3.58;;;;;;;;;;5056410;28;20045;-87
2022/09/29 02:20:50;;;;;;;4.47;4.18;;;;;;;;;;5073754;28;20515;-87
2022/09/29 02:23:17;;;;;;;3.78;3.58;;;;;;;;;;5056382;28;20045;-87
2022/09/29 02:25:46;;;;;;;6.00;4.05;;;;;;;;;;5056328;28;20052;-88
2022/09/29 02:28:14;;;;;;;4.78;4.32;;;;;;;;;;5056418;28;20127;-88
2022/09/29 02:30:42;;;;;;;4.05;3.75;;;;;;;;;;5056024;28;20432;-87
2022/09/29 02:33:17;;;;;;;4.63;4.13;;;;;;;;;;5056071;28;20055;-87
2022/09/29 02:35:48;;;;;;;9.82;3.92;;;;;;;;;;5056087;28;20048;-88
2022/09/29 02:38:25;;;;;;;7.43;3.70;;;;;;;;;;5056395;28;20087;-88
2022/09/29 02:41:18;;;;;;;4.13;3.75;;;;;;;;;;5073708;28;20415;-88
2022/09/29 02:43:47;;;;;;;12.03;4.53;;;;;;;;;;5054442;28;20485;-87
2022/09/29 02:46:18;;;;;;;3.70;3.33;;;;;;;;;;5055897;28;20291;-87
2022/09/29 02:49:31;;;;;;;11.70;3.78;;;;;;;;;;5073518;28;20057;-87
2022/09/29 02:52:17;;;;;;;4.03;3.67;;;;;;;;;;4995829;28;20049;-87
2022/09/29 02:54:53;;;;;;;4.97;3.92;;;;;;;;;;5011993;28;20058;-87
2022/09/29 02:57:26;;;;;;;4.57;3.80;;;;;;;;;;5052816;28;20472;-87
2022/09/29 03:00:08;;;;;;;4.45;4.00;;;;;;;;;;5056340;28;20045;-87
2022/09/29 03:02:39;;;;;;;6.10;4.43;;;;;;;;;;5055896;28;20045;-87
2022/09/29 03:05:09;;;;;;;6.78;4.15;;;;;;;;;;5073342;28;20048;-87
2022/09/29 03:07:37;;;;;;;4.45;4.05;;;;;;;;;;5073712;28;20519;-88
2022/09/29 03:10:05;;;;;;;4.65;3.80;;;;;;;;;;5055985;28;20052;-88
2022/09/29 03:12:36;;;;;;;4.43;3.97;;;;;;;;;;5056269;28;20045;-87
2022/09/29 03:15:07;;;;;;;3.88;3.45;;;;;;;;;;5056038;28;20071;-87
2022/09/29 03:17:39;;;;;;;3.90;3.63;;;;;;;;;;5073041;28;20049;-87
2022/09/29 03:20:07;;;;;;;5.05;4.10;;;;;;;;;;5055689;28;20499;-87
2022/09/29 03:22:35;;;;;;;5.43;4.43;;;;;;;;;;5075425;28;20127;-88
2022/09/29 03:25:04;;;;;;;4.60;4.20;;;;;;;;;;5059712;28;20049;-87
2022/09/29 03:27:38;;;;;;;4.05;3.75;;;;;;;;;;5077373;28;20049;-87
2022/09/29 03:30:05;;;;;;;3.83;3.55;;;;;;;;;;5059624;28;20390;-87
2022/09/29 03:32:32;;;;;;;4.30;3.90;;;;;;;;;;5077408;28;20045;-88
2022/09/29 03:34:59;;;;;;;4.20;3.90;;;;;;;;;;5077113;28;20052;-87
2022/09/29 03:37:31;;;;;;;4.13;3.60;;;;;;;;;;5077333;28;20052;-88
2022/09/29 03:39:58;;;;;;;8.90;3.95;;;;;;;;;;5059545;28;20404;-88
2022/09/29 03:42:27;;;;;;;4.00;3.63;;;;;;;;;;5059482;28;20052;-87
2022/09/29 03:44:56;;;;;;;4.43;4.03;;;;;;;;;;5059307;28;20056;-88
2022/09/29 03:47:28;;;;;;;3.92;3.60;;;;;;;;;;5077160;28;20056;-87
2022/09/29 03:49:56;;;;;;;4.50;3.40;;;;;;;;;;5059003;28;20081;-88
2022/09/29 03:52:23;;;;;;;6.78;4.20;;;;;;;;;;5076806;28;20049;-88
2022/09/29 03:54:52;;;;;;;6.65;3.83;;;;;;;;;;5059198;28;20048;-87
2022/09/29 03:57:19;;;;;;;4.10;3.80;;;;;;;;;;5076687;28;20060;-88
2022/09/29 03:59:46;;;;;;;5.25;4.75;;;;;;;;;;5059384;28;20052;-87
2022/09/29 04:02:19;;;;;;;5.60;4.68;;;;;;;;;;5076651;28;20048;-87
2022/09/29 04:04:47;;;;;;;5.47;4.13;;;;;;;;;;5059099;28;20044;-88
2022/09/29 04:07:14;;;;;;;4.65;4.25;;;;;;;;;;5076434;28;20048;-88
2022/09/29 04:09:42;;;;;;;4.53;4.13;;;;;;;;;;5058967;28;20519;-88
2022/09/29 04:12:12;;;;;;;4.43;4.10;;;;;;;;;;5076514;28;20059;-87
2022/09/29 04:14:39;;;;;;;5.10;4.70;;;;;;;;;;5076534;28;20063;-87
2022/09/29 04:17:06;;;;;;;4.88;4.45;;;;;;;;;;5076422;28;20041;-88
2022/09/29 04:19:35;;;;;;;6.43;4.68;;;;;;;;;;5058624;28;20062;-87
2022/09/29 04:22:05;;;;;;;5.65;4.43;;;;;;;;;;5058595;28;20048;-87
2022/09/29 04:24:34;;;;;;;7.18;4.47;;;;;;;;;;5058675;28;20094;-88
2022/09/29 04:27:02;;;;;;;5.00;4.60;;;;;;;;;;5059056;28;20040;-87
2022/09/29 04:29:31;;;;;;;6.00;4.13;;;;;;;;;;5059170;28;20055;-88
2022/09/29 04:31:58;;;;;;;4.25;3.78;;;;;;;;;;5076072;28;20033;-87
2022/09/29 04:34:30;;;;;;;4.53;3.63;;;;;;;;;;5057333;28;20087;-88
2022/09/29 04:36:57;;;;;;;4.40;4.00;;;;;;;;;;5058156;28;20066;-87
2022/09/29 04:39:25;;;;;;;5.95;4.47;;;;;;;;;;5058624;28;20045;-88
2022/09/29 04:41:52;;;;;;;6.93;4.20;;;;;;;;;;5058268;28;20055;-88
2022/09/29 04:44:23;;;;;;;7.63;4.50;;;;;;;;;;5058042;28;20052;-87
2022/09/29 04:46:51;;;;;;;6.78;4.10;;;;;;;;;;5057605;28;20048;-87
2022/09/29 04:49:18;;;;;;;5.72;4.10;;;;;;;;;;5075754;28;20055;-87
2022/09/29 04:51:51;;;;;;;4.70;4.03;;;;;;;;;;5075810;28;20099;-87
2022/09/29 04:54:18;;;;;;;4.88;4.38;;;;;;;;;;5075702;28;20052;-87
2022/09/29 04:56:47;;;;;;;4.70;4.00;;;;;;;;;;5058306;28;20049;-87
2022/09/29 04:59:16;;;;;;;10.30;6.72;;;;;;;;;;5075627;28;20048;-87
2022/09/29 05:01:43;;;;;;;32.45;22.40;;;;;;;;;;5075686;28;20062;-87
2022/09/29 05:04:12;;;;;;;9.07;5.82;;;;;;;;;;5075298;28;20139;-88
2022/09/29 05:06:44;;;;;;;7.28;5.10;;;;;;;;;;5057804;28;20048;-87
2022/09/29 05:09:11;;;;;;;7.00;3.97;;;;;;;;;;5057589;28;20045;-87
2022/09/29 05:11:38;;;;;;;10.45;7.82;;;;;;;;;;5057660;28;20055;-88
2022/09/29 05:14:10;;;;;;;13.48;9.82;;;;;;;;;;5075205;28;20048;-87
2022/09/29 05:16:40;;;;;;;15.48;9.50;;;;;;;;;;5057544;28;20044;-87
2022/09/29 05:19:07;;;;;;;15.57;11.82;;;;;;;;;;5075242;28;20049;-87
2022/09/29 05:21:37;;;;;;;21.50;13.80;;;;;;;;;;5075189;28;20052;-87
2022/09/29 05:24:04;;;;;;;9.38;8.23;;;;;;;;;;5075006;28;20051;-87
2022/09/29 05:26:31;;;;;;;8.27;6.53;;;;;;;;;;5057539;28;20534;-87
2022/09/29 05:29:01;;;;;;;7.05;4.75;;;;;;;;;;5074903;28;20052;-87
2022/09/29 05:31:28;;;;;;;8.93;5.18;;;;;;;;;;5074894;28;20045;-87
2022/09/29 05:33:58;;;;;;;14.55;5.53;;;;;;;;;;5057409;28;20048;-87
2022/09/29 05:36:25;;;;;;;9.63;5.35;;;;;;;;;;5057441;28;20055;-87
2022/09/29 05:38:52;;;;;;;11.68;6.45;;;;;;;;;;5057502;28;20056;-87
2022/09/29 05:41:22;;;;;;;10.60;6.65;;;;;;;;;;5057611;28;20044;-88
2022/09/29 05:43:52;;;;;;;8.38;5.93;;;;;;;;;;5057277;28;20517;-87
2022/09/29 05:46:20;;;;;;;11.77;6.60;;;;;;;;;;5057308;28;20056;-88
2022/09/29 05:48:48;;;;;;;8.15;6.15;;;;;;;;;;5074701;28;20052;-88
2022/09/29 05:51:19;;;;;;;11.98;6.68;;;;;;;;;;5057221;28;20058;-87
2022/09/29 05:53:52;;;;;;;6.10;5.50;;;;;;;;;;5074989;28;20053;-87
2022/09/29 05:56:21;;;;;;;7.93;6.15;;;;;;;;;;5057010;28;20223;-87
2022/09/29 05:58:53;;;;;;;6.72;6.13;;;;;;;;;;5057211;28;20055;-87
2022/09/29 06:01:21;;;;;;;9.52;6.22;;;;;;;;;;5056666;28;20053;-87
2022/09/29 06:03:50;;;;;;;8.90;6.32;;;;;;;;;;5056808;28;20052;-87
2022/09/29 06:06:22;;;;;;;15.88;6.57;;;;;;;;;;5056818;28;20596;-88
2022/09/29 06:08:54;;;;;;;12.43;5.65;;;;;;;;;;5056806;28;20512;-87
2022/09/29 06:11:31;;;;;;;7.38;5.40;;;;;;;;;;5056752;28;20390;-87
2022/09/29 06:14:00;;;;;;;6.70;5.13;;;;;;;;;;5056435;28;20052;-86
2022/09/29 06:16:36;;;;;;;10.18;6.10;;;;;;;;;;5056544;28;20052;-87
2022/09/29 06:19:03;;;;;;;7.20;5.70;;;;;;;;;;5074096;28;20109;-88
2022/09/29 06:21:33;;;;;;;8.35;6.05;;;;;;;;;;5056651;28;20055;-87
2022/09/29 06:24:01;;;;;;;9.65;5.55;;;;;;;;;;5056521;28;20135;-87
2022/09/29 06:26:28;;;;;;;6.53;5.50;;;;;;;;;;5056574;28;20083;-87
2022/09/29 06:29:00;;;;;;;13.07;5.82;;;;;;;;;;5056113;28;20063;-88
2022/09/29 06:31:29;;;;;;;7.95;6.05;;;;;;;;;;5073574;28;20052;-87
2022/09/29 06:33:57;;;;;;;12.80;6.40;;;;;;;;;;5056249;28;20527;-87
2022/09/29 06:39:14;;;;;;;14.32;7.03;;;;;;;;;;5073971;28;20420;-87
2022/09/29 06:41:47;;;;;;;9.25;8.27;;;;;;;;;;5074035;28;20048;-87
2022/09/29 06:44:14;;;;;;;8.30;7.50;;;;;;;;;;5055871;28;20132;-87
2022/09/29 06:46:42;;;;;;;11.15;8.77;;;;;;;;;;5056459;28;20048;-86
2022/09/29 06:49:11;;;;;;;8.20;6.78;;;;;;;;;;5056269;28;20049;-86
2022/09/29 06:51:42;;;;;;;7.13;5.03;;;;;;;;;;5056275;28;20048;-87
2022/09/29 06:54:15;;;;;;;;;;;;;;;;;;5056774;28;20131;-87
2022/09/29 06:56:42;;;;;;;6.63;5.97;;;;;;;;;;5055182;28;19921;-87
2022/09/29 06:59:11;;;;;;;7.90;6.78;;;;;;;;;;5073579;28;20048;-87
2022/09/29 07:01:39;;;;;;;17.88;10.27;;;;;;;;;;5073353;28;20496;-87
2022/09/29 07:04:06;;;;;;;28.08;14.40;;;;;;;;;;5056283;28;20102;-87
2022/09/29 07:06:34;;;;;;;11.32;7.63;;;;;;;;;;5055757;28;20059;-87
2022/09/29 07:09:01;;;;;;;9.02;5.65;;;;;;;;;;5055467;28;20072;-87
2022/09/29 07:11:28;;;;;;;12.40;5.57;;;;;;;;;;5073685;28;20051;-86
2022/09/29 07:13:55;;;;;;;18.35;5.22;;;;;;;;;;5056069;28;20049;-88
2022/09/29 07:16:22;;;;;;;6.38;4.90;;;;;;;;;;5073846;28;20064;-87
2022/09/29 07:18:51;;;;;;;7.25;4.25;;;;;;;;;;5073462;28;20148;-88
2022/09/29 07:21:20;;;;;;;11.82;3.97;;;;;;;;;;5073524;28;20044;-88
2022/09/29 07:23:47;;;;;;;8.68;3.60;;;;;;;;;;5055804;28;20132;-87
2022/09/29 07:26:15;;;;;;;9.63;3.95;;;;;;;;;;5073408;28;20040;-88
2022/09/29 07:28:43;;;;;;;7.85;4.03;;;;;;;;;;5055805;28;20044;-87
2022/09/29 07:31:11;;;;;;;8.73;3.97;;;;;;;;;;5055898;28;20044;-87
2022/09/29 07:33:42;;;;;;;5.95;4.22;;;;;;;;;;5056034;28;20448;-86
2022/09/29 07:36:10;;;;;;;10.05;4.60;;;;;;;;;;5055967;28;20053;-88
2022/09/29 07:38:37;;;;;;;8.70;3.70;;;;;;;;;;5073524;28;20044;-87
2022/09/29 07:41:06;;;;;;;10.07;4.30;;;;;;;;;;5054628;28;20056;-87
2022/09/29 07:43:33;;;;;;;5.93;3.80;;;;;;;;;;5055698;28;20844;-87
2022/09/29 07:46:01;;;;;;;15.00;3.90;;;;;;;;;;5055422;28;20511;-86
2022/09/29 07:48:29;;;;;;;3.60;3.30;;;;;;;;;;5055390;28;20059;-86
2022/09/29 07:51:05;;;;;;;3.45;3.15;;;;;;;;;;5073044;28;20048;-85
2022/09/29 07:53:33;;;;;;;3.28;2.97;;;;;;;;;;5055307;28;20048;-86
2022/09/29 07:56:07;;;;;;;5.53;2.58;;;;;;;;;;5072742;28;20052;-86
2022/09/29 07:58:35;;;;;;;3.58;2.40;;;;;;;;;;5055602;28;20055;-86
2022/09/29 08:01:05;;;;;;;4.00;2.20;;;;;;;;;;5054847;28;20040;-86
2022/09/29 08:03:32;;;;;;;2.13;1.75;;;;;;;;;;5055062;28;20393;-85
2022/09/29 08:05:59;;;;;;;4.72;2.13;;;;;;;;;;5055278;28;20408;-86
2022/09/29 08:08:27;;;;;;;2.75;2.55;;;;;;;;;;5055113;28;20412;-85
2022/09/29 08:11:07;;;;;;;4.50;2.35;;;;;;;;;;5076281;28;20044;-86
2022/09/29 08:13:36;;;;;;;7.28;2.58;;;;;;;;;;5059532;28;20485;-87
2022/09/29 08:16:05;;;;;;;4.88;2.20;;;;;;;;;;5058882;28;20051;-86
2022/09/29 08:18:33;;;;;;;2.35;2.15;;;;;;;;;;5058915;28;20497;-85
2022/09/29 08:21:00;;;;;;;2.47;2.20;;;;;;;;;;5058328;28;20078;-86
2022/09/29 08:23:33;;;;;;;17.60;2.63;;;;;;;;;;5058805;28;20079;-86
2022/09/29 08:26:01;;;;;;;2.67;2.20;;;;;;;;;;5076200;28;20060;-85
2022/09/29 08:28:29;;;;;;;3.88;2.22;;;;;;;;;;5059054;28;20044;-86
2022/09/29 08:31:03;;;;;;;4.10;2.00;;;;;;;;;;5076761;28;20545;-88
2022/09/29 08:33:31;;;;;;;3.40;1.67;;;;;;;;;;5058755;28;20405;-86
2022/09/29 08:35:58;;;;;;;3.92;1.88;;;;;;;;;;5058129;28;20510;-86
2022/09/29 08:38:26;;;;;;;1.55;1.45;;;;;;;;;;5058756;28;20059;-86
2022/09/29 08:40:54;;;;;;;3.50;1.58;;;;;;;;;;5058413;28;20049;-86
2022/09/29 08:43:22;;;;;;;2.05;1.50;;;;;;;;;;5058467;28;20084;-87
2022/09/29 08:46:00;;;;;;;3.03;1.80;;;;;;;;;;5059819;28;20056;-87
2022/09/29 08:48:31;;;;;;;3.10;1.88;;;;;;;;;;5058123;28;20588;-87
2022/09/29 08:50:59;;;;;;;1.70;1.55;;;;;;;;;;5058207;28;20052;-86
2022/09/29 08:53:28;;;;;;;2.88;1.30;;;;;;;;;;5075970;28;20053;-87
2022/09/29 08:56:23;;;;;;;4.63;1.60;;;;;;;;;;5057948;28;20086;-86
2022/09/29 08:58:51;;;;;;;2.80;1.63;;;;;;;;;;5056834;28;20060;-87
2022/09/29 09:01:27;;;;;;;12.32;2.28;;;;;;;;;;5075853;28;20063;-87
2022/09/29 09:04:00;;;;;;;2.80;1.10;;;;;;;;;;5075502;28;20139;-87
2022/09/29 09:06:27;;;;;;;8.93;2.50;;;;;;;;;;5075694;28;20048;-88
2022/09/29 09:09:21;;;;;;;7.40;1.67;;;;;;;;;;5057931;28;20123;-87
2022/09/29 09:11:50;;;;;;;;;;;;;;;;;;5075905;28;20052;-87
2022/09/29 09:14:23;;;;;;;3.78;1.75;;;;;;;;;;5057887;28;19920;-89
2022/09/29 09:16:56;;;;;;;6.63;2.17;;;;;;;;;;5075541;28;20048;-87
2022/09/29 09:19:24;;;;;;;5.15;1.60;;;;;;;;;;5075162;28;20052;-87
2022/09/29 09:22:02;;;;;;;3.53;1.63;;;;;;;;;;5059261;28;20045;-89
2022/09/29 09:24:44;;;;;;;6.38;1.42;;;;;;;;;;5057574;28;20064;-88
2022/09/29 09:27:13;;;;;;;2.65;1.52;;;;;;;;;;5057893;28;20048;-86
2022/09/29 09:29:43;;;;;;;2.50;1.35;;;;;;;;;;5075341;28;20091;-87
2022/09/29 09:32:12;;;;;;;5.68;1.60;;;;;;;;;;5075149;28;20045;-87
2022/09/29 09:34:49;;;;;;;2.40;1.38;;;;;;;;;;5057592;28;20049;-87
2022/09/29 09:37:32;;;;;;;5.80;1.52;;;;;;;;;;5075269;28;20139;-87
2022/09/29 09:40:03;;;;;;;5.57;1.45;;;;;;;;;;5057010;28;20131;-87
2022/09/29 09:42:32;;;;;;;2.65;1.08;;;;;;;;;;5057222;28;20048;-87
2022/09/29 09:45:06;;;;;;;1.55;1.20;;;;;;;;;;5057048;28;20060;-87
2022/09/29 09:47:37;;;;;;;1.45;1.10;;;;;;;;;;5057230;28;20058;-86
2022/09/29 09:50:15;;;;;;;4.07;1.48;;;;;;;;;;5074761;28;20044;-88
2022/09/29 09:53:14;;;;;;;5.45;2.60;;;;;;;;;;5056948;28;20059;-85
2022/09/29 09:55:42;;;;;;;4.57;1.80;;;;;;;;;;5062788;28;20148;-92
2022/09/29 09:58:09;;;;;;;3.53;1.40;;;;;;;;;;5057788;28;20045;-88
2022/09/29 10:00:44;;;;;;;1.63;1.52;;;;;;;;;;5057941;28;20055;-87
2022/09/29 10:03:13;;;;;;;5.95;1.50;;;;;;;;;;5056912;28;20058;-89
2022/09/29 10:05:42;;;;;;;12.43;3.75;;;;;;;;;;5057119;28;20128;-88
2022/09/29 10:08:12;;;;;;;28.67;4.20;;;;;;;;;;5057007;28;20131;-90
2022/09/29 10:10:40;;;;;;;31.00;3.80;;;;;;;;;;5074342;28;20062;-84
2022/09/29 10:13:27;;;;;;;4.40;1.95;;;;;;;;;;5059210;28;20060;-87
2022/09/29 10:16:01;;;;;;;2.33;1.55;;;;;;;;;;5056621;28;20135;-88
2022/09/29 10:18:30;;;;;;;3.67;1.38;;;;;;;;;;5056659;28;20496;-86
2022/09/29 10:20:57;;;;;;;3.50;1.73;;;;;;;;;;5056854;28;20044;-86
2022/09/29 10:23:26;;;;;;;6.40;2.20;;;;;;;;;;5074186;28;20439;-86
2022/09/29 10:25:56;;;;;;;2.20;1.85;;;;;;;;;;5056555;28;20048;-91
2022/09/29 10:28:24;;;;;;;3.08;1.70;;;;;;;;;;5056447;28;20044;-87
2022/09/29 10:30:53;;;;;;;3.05;2.03;;;;;;;;;;5056307;28;20526;-88
2022/09/29 10:33:22;;;;;;;3.78;1.90;;;;;;;;;;5056113;28;20167;-87
2022/09/29 10:35:51;;;;;;;3.20;1.38;;;;;;;;;;5056303;28;20119;-86
2022/09/29 10:38:24;;;;;;;6.68;1.50;;;;;;;;;;5074246;28;20055;-87
2022/09/29 10:40:58;;;;;;;4.15;2.00;;;;;;;;;;5056606;28;20048;-86
2022/09/29 10:43:31;;;;;;;2.65;1.58;;;;;;;;;;5056071;28;20048;-86
2022/09/29 10:45:58;;;;;;;3.22;1.40;;;;;;;;;;5073648;28;20534;-87
2022/09/29 10:48:26;;;;;;;2.95;1.80;;;;;;;;;;5055953;28;20055;-86
2022/09/29 10:50:55;;;;;;;3.55;1.83;;;;;;;;;;5073826;28;20053;-87
2022/09/29 10:53:32;;;;;;;2.47;1.35;;;;;;;;;;5055923;28;20056;-87
2022/09/29 10:56:00;;;;;;;6.90;1.70;;;;;;;;;;5055920;28;20053;-88
2022/09/29 10:58:30;;;;;;;4.32;1.10;;;;;;;;;;5073762;28;20045;-89
2022/09/29 11:01:18;;;;;;;2.50;1.00;;;;;;;;;;5074410;28;20053;-87
2022/09/29 11:03:53;;;;;;;3.40;1.30;;;;;;;;;;5056068;28;20504;-87
2022/09/29 11:06:30;;;;;;;4.88;1.45;;;;;;;;;;5051975;28;20071;-86
2022/09/29 11:08:58;;;;;;;2.70;0.85;;;;;;;;;;5055628;28;20054;-85
2022/09/29 11:11:28;;;;;;;3.25;1.00;;;;;;;;;;5056045;28;20052;-86
2022/09/29 11:13:56;;;;;;;1.77;0.82;;;;;;;;;;5056061;28;20056;-87
2022/09/29 11:16:28;;;;;;;1.80;1.23;;;;;;;;;;5056511;28;20096;-85
2022/09/29 11:18:58;;;;;;;1.67;1.00;;;;;;;;;;5055381;28;20496;-87
2022/09/29 11:21:28;;;;;;;1.92;1.20;;;;;;;;;;5073340;28;20064;-86
2022/09/29 11:24:14;;;;;;;1.95;1.15;;;;;;;;;;5073287;28;20488;-88
2022/09/29 11:26:57;;;;;;;1.73;1.25;;;;;;;;;;5073167;28;20051;-88
2022/09/29 11:29:45;;;;;;;2.42;1.00;;;;;;;;;;5073710;28;20059;-87
2022/09/29 11:32:24;;;;;;;3.88;1.00;;;;;;;;;;5073249;28;20044;-88
2022/09/29 11:34:51;;;;;;;1.55;1.05;;;;;;;;;;5073132;28;20049;-88
2022/09/29 11:37:44;;;;;;;1.23;1.10;;;;;;;;;;5055838;28;20136;-88
2022/09/29 11:40:27;;;;;;;2.85;1.55;;;;;;;;;;5073224;28;20044;-88
2022/09/29 11:43:18;;;;;;;22.17;16.33;;;;;;;;;;5056536;28;20504;-87
2022/09/29 11:45:45;;;;;;;47.80;25.17;;;;;;;;;;5056068;28;20061;-87
2022/09/29 11:48:24;;;;;;;24.35;12.95;;;;;;;;;;5056986;28;20083;-87
2022/09/29 11:51:08;;;;;;;3.42;2.55;;;;;;;;;;5056094;28;20095;-87
2022/09/29 11:53:45;;;;;;;3.53;2.13;;;;;;;;;;5040233;28;20437;-87
2022/09/29 11:56:31;;;;;;;1.88;1.75;;;;;;;;;;5039398;28;20057;-88
2022/09/29 11:59:07;;;;;;;1.70;0.68;;;;;;;;;;5039348;28;20053;-86
2022/09/29 12:01:38;;;;;;;2.95;1.13;;;;;;;;;;5056729;28;20493;-86
2022/09/29 12:04:24;;;;;;;1.27;0.70;;;;;;;;;;5056857;28;20507;-87
2022/09/29 12:07:17;;;;;;;4.00;0.88;;;;;;;;;;5056414;28;20049;-87
2022/09/29 12:09:50;;;;;;;3.40;1.00;;;;;;;;;;5039263;28;20052;-86
2022/09/29 12:12:17;;;;;;;2.90;0.90;;;;;;;;;;5038892;28;20053;-86
2022/09/29 12:15:07;;;;;;;1.80;0.60;;;;;;;;;;5039711;28;20059;-86
2022/09/29 12:17:38;;;;;;;2.22;0.80;;;;;;;;;;5039079;28;20048;-86
2022/09/29 12:20:13;;;;;;;1.15;0.52;;;;;;;;;;5038979;28;20055;-86
2022/09/29 12:22:43;;;;;;;1.83;0.80;;;;;;;;;;5038750;28;20053;-87
2022/09/29 12:25:15;;;;;;;4.65;0.90;;;;;;;;;;5056160;28;20472;-87
2022/09/29 12:27:43;;;;;;;1.10;0.60;;;;;;;;;;5056083;28;20048;-87
2022/09/29 12:30:34;;;;;;;3.05;0.70;;;;;;;;;;5038681;28;20049;-86
2022/09/29 12:33:13;;;;;;;1.30;0.73;;;;;;;;;;5038385;28;20053;-86
2022/09/29 12:35:40;;;;;;;0.82;0.70;;;;;;;;;;5038607;28;20489;-86
2022/09/29 12:38:30;;;;;;;1.73;0.60;;;;;;;;;;5055980;28;20045;-87
2022/09/29 12:41:33;;;;;;;5.00;1.08;;;;;;;;;;5030868;28;20049;-87
2022/09/29 12:44:08;;;;;;;1.27;0.70;;;;;;;;;;4976980;28;20051;-86
2022/09/29 12:46:44;;;;;;;5.10;0.82;;;;;;;;;;5050095;28;20287;-87
2022/09/29 12:49:28;;;;;;;4.20;1.10;;;;;;;;;;5058324;28;20452;-87
2022/09/29 12:51:56;;;;;;;1.55;0.90;;;;;;;;;;5058011;28;20051;-86
2022/09/29 12:54:23;;;;;;;2.28;0.70;;;;;;;;;;5075027;28;20480;-87
2022/09/29 12:57:04;;;;;;;1.75;1.10;;;;;;;;;;5075780;28;20051;-87
2022/09/29 12:59:46;;;;;;;2.50;0.90;;;;;;;;;;5058453;28;20045;-86
2022/09/29 13:02:17;;;;;;;1.00;0.90;;;;;;;;;;5075700;28;20049;-87
2022/09/29 13:05:03;;;;;;;3.97;1.17;;;;;;;;;;5075500;28;20082;-86
2022/09/29 13:07:56;;;;;;;1.95;1.15;;;;;;;;;;5058037;28;20048;-87
2022/09/29 13:10:32;;;;;;;3.45;0.98;;;;;;;;;;5057926;28;20044;-88
2022/09/29 13:13:18;;;;;;;1.42;0.98;;;;;;;;;;5057936;28;20135;-88
2022/09/29 13:15:51;;;;;;;5.43;1.00;;;;;;;;;;5057625;28;20052;-87
2022/09/29 13:18:31;;;;;;;1.23;1.00;;;;;;;;;;5057869;28;20058;-89
2022/09/29 13:21:04;;;;;;;3.90;0.90;;;;;;;;;;5057827;28;20059;-87
2022/09/29 13:23:50;;;;;;;4.07;1.02;;;;;;;;;;5057890;28;20056;-87
2022/09/29 13:26:26;;;;;;;2.65;1.27;;;;;;;;;;5057558;28;20044;-86
2022/09/29 13:28:56;;;;;;;4.18;1.45;;;;;;;;;;5057738;28;20576;-87
2022/09/29 13:31:26;;;;;;;3.85;1.48;;;;;;;;;;5075182;28;20067;-87
2022/09/29 13:34:00;;;;;;;3.05;1.30;;;;;;;;;;5058441;28;20049;-87
2022/09/29 13:36:35;;;;;;;2.65;1.10;;;;;;;;;;5057658;28;20081;-87
2022/09/29 13:39:04;;;;;;;2.33;1.50;;;;;;;;;;5075028;28;20048;-86
2022/09/29 13:41:34;;;;;;;1.35;1.10;;;;;;;;;;5056003;28;20066;-87
2022/09/29 13:44:01;;;;;;;2.65;1.30;;;;;;;;;;5074469;28;20048;-87
2022/09/29 13:46:31;;;;;;;2.45;1.50;;;;;;;;;;5074667;28;20048;-87
2022/09/29 13:49:13;;;;;;;4.60;1.58;;;;;;;;;;5074664;28;20041;-87
2022/09/29 13:52:02;;;;;;;1.30;1.20;;;;;;;;;;5074659;28;20059;-86
2022/09/29 13:54:31;;;;;;;3.17;1.75;;;;;;;;;;5056832;28;20539;-87
2022/09/29 13:57:22;;;;;;;2.70;1.70;;;;;;;;;;5074499;28;20136;-87
2022/09/29 13:59:54;;;;;;;2.88;1.70;;;;;;;;;;5057590;28;20055;-86
2022/09/29 14:02:37;;;;;;;2.50;1.92;;;;;;;;;;5057181;28;20102;-88
2022/09/29 14:05:05;;;;;;;2.47;2.00;;;;;;;;;;5073910;28;20056;-87
2022/09/29 14:07:41;;;;;;;4.03;1.80;;;;;;;;;;5056571;28;20084;-85
2022/09/29 14:10:22;;;;;;;2.80;1.50;;;;;;;;;;5056470;28;20420;-87
2022/09/29 14:12:57;;;;;;;2.80;1.42;;;;;;;;;;5056490;28;20045;-86
2022/09/29 14:15:25;;;;;;;3.53;1.90;;;;;;;;;;5056680;28;20078;-87
2022/09/29 14:17:57;;;;;;;11.52;2.10;;;;;;;;;;5074216;28;20052;-88
2022/09/29 14:20:30;;;;;;;6.80;2.20;;;;;;;;;;5056535;28;20053;-87
2022/09/29 14:22:58;;;;;;;9.00;3.00;;;;;;;;;;5056591;28;20056;-88
2022/09/29 14:25:30;;;;;;;5.47;2.08;;;;;;;;;;5073588;28;20063;-87
2022/09/29 14:28:04;;;;;;;7.97;1.75;;;;;;;;;;5074032;28;20458;-87
2022/09/29 14:30:34;;;;;;;;;;;;;;;;;;5056786;28;20053;-86
2022/09/29 14:33:05;;;;;;;11.40;1.88;;;;;;;;;;5073643;28;19924;-87
2022/09/29 14:35:36;;;;;;;7.88;1.73;;;;;;;;;;5056276;28;20044;-87
2022/09/29 14:38:06;;;;;;;4.18;1.42;;;;;;;;;;5056047;28;20049;-87
2022/09/29 14:40:33;;;;;;;2.40;1.60;;;;;;;;;;5073895;28;20043;-86
2022/09/29 14:43:14;;;;;;;5.65;1.30;;;;;;;;;;5056074;28;20057;-87
2022/09/29 14:51:59;;;;;;;6.28;2.17;;;;;;;;;;5073567;28;20045;-88
2022/09/29 14:54:32;;;;;;;5.20;2.03;;;;;;;;;;5056213;28;20071;-87
2022/09/29 14:57:01;;;;;;;2.13;1.85;;;;;;;;;;5073874;28;20139;-87
2022/09/29 14:59:40;;;;;;;2.95;1.95;;;;;;;;;;5073968;28;20044;-88
2022/09/29 15:02:20;;;;;;;2.10;1.60;;;;;;;;;;5055859;28;20471;-87
2022/09/29 15:04:48;;;;;;;2.63;1.65;;;;;;;;;;5055617;28;20045;-87
2022/09/29 15:07:17;;;;;;;5.43;1.90;;;;;;;;;;5055754;28;20049;-86
2022/09/29 15:09:45;;;;;;;8.02;2.00;;;;;;;;;;5073521;28;20080;-87
2022/09/29 15:12:14;;;;;;;4.10;1.85;;;;;;;;;;5055797;28;20408;-86
2022/09/29 15:14:41;;;;;;;2.38;1.70;;;;;;;;;;5055676;28;20056;-86
2022/09/29 15:17:13;;;;;;;3.53;2.65;;;;;;;;;;5055798;28;20044;-86
2022/09/29 15:19:55;;;;;;;4.78;2.63;;;;;;;;;;5079863;28;20056;-87
2022/09/29 15:22:34;;;;;;;4.47;2.40;;;;;;;;;;5062186;28;20044;-86